sensor_id;sensor_type;location;lat;lon;timestamp;P1;durP1;ratioP1;P2;durP2;ratioP2
24147;SDS011;12309;51.450;-2.624;2022-10-23T00:01:27;21.08;;;6.43;;
24147;SDS011;12309;51.450;-2.624;2022-10-23T00:03:57;27.67;;;6.88;;
24147;SDS011;12309;51.450;-2.624;2022-10-23T00:06:25;27.42;;;6.97;;
24147;SDS011;12309;51.450;-2.624;2022-10-23T00:08:52;28.35;;;6.70;;
24147;SDS011;12309;51.450;-2.624;2022-10-23T00:11:19;26.90;;;6.82;;
24147;SDS011;12309;51.450;-2.624;2022-10-23T00:13:48;30.35;;;6.25;;
24147;SDS011;12309;51.450;-2.624;2022-10-23T00:16:14;26.45;;;6.50;;
24147;SDS011;12309;51.450;-2.624;2022-10-23T00:18:40;31.63;;;6.65;;
24147;SDS011;12309;51.450;-2.624;2022-10-23T00:21:06;22.75;;;6.47;;
24147;SDS011;12309;51.450;-2.624;2022-10-23T00:23:33;38.97;;;6.80;;
24147;SDS011;12309;51.450;-2.624;2022-10-23T00:25:59;31.83;;;6.18;;
24147;SDS011;12309;51.450;-2.624;2022-10-23T00:28:25;38.20;;;7.45;;
24147;SDS011;12309;51.450;-2.624;2022-10-23T00:30:51;32.97;;;6.70;;
24147;SDS011;12309;51.450;-2.624;2022-10-23T00:33:17;27.95;;;6.20;;
24147;SDS011;12309;51.450;-2.624;2022-10-23T00:35:43;25.42;;;5.50;;
24147;SDS011;12309;51.450;-2.624;2022-10-23T00:38:09;17.10;;;5.50;;
24147;SDS011;12309;51.450;-2.624;2022-10-23T00:40:36;25.33;;;6.03;;
24147;SDS011;12309;51.450;-2.624;2022-10-23T00:43:02;23.35;;;5.95;;
24147;SDS011;12309;51.450;-2.624;2022-10-23T00:45:29;21.52;;;5.72;;
24147;SDS011;12309;51.450;-2.624;2022-10-23T00:47:57;23.50;;;5.22;;
24147;SDS011;12309;51.450;-2.624;2022-10-23T00:50:25;28.65;;;6.22;;
24147;SDS011;12309;51.450;-2.624;2022-10-23T00:52:52;24.08;;;5.10;;
24147;SDS011;12309;51.450;-2.624;2022-10-23T00:55:20;20.58;;;4.88;;
24147;SDS011;12309;51.450;-2.624;2022-10-23T00:57:47;25.63;;;5.50;;
24147;SDS011;12309;51.450;-2.624;2022-10-23T01:00:16;20.02;;;5.10;;
24147;SDS011;12309;51.450;-2.624;2022-10-23T01:02:44;23.27;;;5.78;;
24147;SDS011;12309;51.450;-2.624;2022-10-23T01:05:10;26.48;;;5.15;;
24147;SDS011;12309;51.450;-2.624;2022-10-23T01:12:39;29.67;;;4.80;;
24147;SDS011;12309;51.450;-2.624;2022-10-23T01:15:19;22.60;;;4.93;;
24147;SDS011;12309;51.450;-2.624;2022-10-23T01:17:51;18.73;;;4.65;;
24147;SDS011;12309;51.450;-2.624;2022-10-23T01:20:25;22.10;;;4.32;;
24147;SDS011;12309;51.450;-2.624;2022-10-23T01:30:58;23.23;;;4.30;;
24147;SDS011;12309;51.450;-2.624;2022-10-23T01:33:28;20.77;;;5.10;;
24147;SDS011;12309;51.450;-2.624;2022-10-23T01:36:01;32.20;;;5.32;;
24147;SDS011;12309;51.450;-2.624;2022-10-23T01:41:02;20.35;;;4.55;;
24147;SDS011;12309;51.450;-2.624;2022-10-23T01:43:38;26.48;;;5.78;;
24147;SDS011;12309;51.450;-2.624;2022-10-23T01:46:07;18.77;;;4.82;;
24147;SDS011;12309;51.450;-2.624;2022-10-23T01:48:36;20.33;;;5.43;;
24147;SDS011;12309;51.450;-2.624;2022-10-23T01:51:03;25.00;;;5.47;;
24147;SDS011;12309;51.450;-2.624;2022-10-23T01:53:33;27.00;;;5.15;;
24147;SDS011;12309;51.450;-2.624;2022-10-23T01:56:06;21.20;;;5.18;;
24147;SDS011;12309;51.450;-2.624;2022-10-23T01:58:36;27.88;;;6.18;;
24147;SDS011;12309;51.450;-2.624;2022-10-23T02:01:04;28.42;;;6.18;;
24147;SDS011;12309;51.450;-2.624;2022-10-23T02:03:31;25.92;;;5.22;;
24147;SDS011;12309;51.450;-2.624;2022-10-23T02:05:58;25.75;;;5.38;;
24147;SDS011;12309;51.450;-2.624;2022-10-23T02:08:24;22.70;;;5.65;;
24147;SDS011;12309;51.450;-2.624;2022-10-23T02:10:51;24.88;;;5.53;;
24147;SDS011;12309;51.450;-2.624;2022-10-23T02:19:16;25.13;;;5.90;;
24147;SDS011;12309;51.450;-2.624;2022-10-23T02:21:48;29.15;;;4.93;;
24147;SDS011;12309;51.450;-2.624;2022-10-23T02:24:16;29.17;;;5.35;;
24147;SDS011;12309;51.450;-2.624;2022-10-23T02:26:52;21.50;;;4.82;;
24147;SDS011;12309;51.450;-2.624;2022-10-23T02:29:29;30.35;;;5.90;;
24147;SDS011;12309;51.450;-2.624;2022-10-23T02:31:59;31.25;;;5.75;;
24147;SDS011;12309;51.450;-2.624;2022-10-23T02:34:25;33.58;;;5.22;;
24147;SDS011;12309;51.450;-2.624;2022-10-23T02:36:51;25.67;;;5.10;;
24147;SDS011;12309;51.450;-2.624;2022-10-23T02:39:17;33.85;;;6.05;;
24147;SDS011;12309;51.450;-2.624;2022-10-23T02:41:45;18.88;;;4.82;;
24147;SDS011;12309;51.450;-2.624;2022-10-23T02:44:29;24.35;;;5.07;;
24147;SDS011;12309;51.450;-2.624;2022-10-23T02:47:11;21.35;;;4.82;;
24147;SDS011;12309;51.450;-2.624;2022-10-23T02:57:30;29.13;;;4.57;;
24147;SDS011;12309;51.450;-2.624;2022-10-23T03:00:11;21.15;;;5.28;;
24147;SDS011;12309;51.450;-2.624;2022-10-23T03:02:43;26.25;;;5.03;;
24147;SDS011;12309;51.450;-2.624;2022-10-23T03:05:11;22.60;;;4.88;;
24147;SDS011;12309;51.450;-2.624;2022-10-23T03:07:40;22.00;;;4.68;;
24147;SDS011;12309;51.450;-2.624;2022-10-23T03:10:07;18.17;;;5.03;;
24147;SDS011;12309;51.450;-2.624;2022-10-23T03:12:33;21.40;;;4.53;;
24147;SDS011;12309;51.450;-2.624;2022-10-23T03:14:59;21.80;;;4.63;;
24147;SDS011;12309;51.450;-2.624;2022-10-23T03:17:25;18.67;;;4.45;;
24147;SDS011;12309;51.450;-2.624;2022-10-23T03:19:51;29.80;;;5.25;;
24147;SDS011;12309;51.450;-2.624;2022-10-23T03:22:17;17.83;;;4.95;;
24147;SDS011;12309;51.450;-2.624;2022-10-23T03:24:43;19.60;;;5.13;;
24147;SDS011;12309;51.450;-2.624;2022-10-23T03:27:09;17.27;;;4.90;;
24147;SDS011;12309;51.450;-2.624;2022-10-23T03:29:35;21.90;;;4.68;;
24147;SDS011;12309;51.450;-2.624;2022-10-23T03:32:02;22.02;;;4.40;;
24147;SDS011;12309;51.450;-2.624;2022-10-23T03:34:28;13.38;;;4.28;;
24147;SDS011;12309;51.450;-2.624;2022-10-23T03:36:53;19.27;;;4.53;;
24147;SDS011;12309;51.450;-2.624;2022-10-23T03:39:20;15.40;;;4.82;;
24147;SDS011;12309;51.450;-2.624;2022-10-23T03:41:46;15.95;;;4.50;;
24147;SDS011;12309;51.450;-2.624;2022-10-23T03:44:12;17.48;;;4.25;;
24147;SDS011;12309;51.450;-2.624;2022-10-23T03:46:37;22.92;;;4.43;;
24147;SDS011;12309;51.450;-2.624;2022-10-23T03:49:04;19.10;;;4.65;;
24147;SDS011;12309;51.450;-2.624;2022-10-23T03:51:30;21.38;;;4.85;;
24147;SDS011;12309;51.450;-2.624;2022-10-23T03:53:56;21.13;;;4.70;;
24147;SDS011;12309;51.450;-2.624;2022-10-23T03:56:22;22.45;;;4.65;;
24147;SDS011;12309;51.450;-2.624;2022-10-23T03:58:48;13.13;;;4.38;;
24147;SDS011;12309;51.450;-2.624;2022-10-23T04:01:13;18.33;;;3.88;;
24147;SDS011;12309;51.450;-2.624;2022-10-23T04:03:39;19.83;;;4.45;;
24147;SDS011;12309;51.450;-2.624;2022-10-23T04:06:06;20.13;;;4.68;;
24147;SDS011;12309;51.450;-2.624;2022-10-23T04:08:32;11.02;;;4.65;;
24147;SDS011;12309;51.450;-2.624;2022-10-23T04:10:58;15.70;;;4.70;;
24147;SDS011;12309;51.450;-2.624;2022-10-23T04:13:24;12.27;;;4.30;;
24147;SDS011;12309;51.450;-2.624;2022-10-23T04:15:50;11.23;;;4.00;;
24147;SDS011;12309;51.450;-2.624;2022-10-23T04:18:16;12.93;;;4.35;;
24147;SDS011;12309;51.450;-2.624;2022-10-23T04:20:43;15.85;;;3.67;;
24147;SDS011;12309;51.450;-2.624;2022-10-23T04:23:12;8.90;;;4.03;;
24147;SDS011;12309;51.450;-2.624;2022-10-23T04:25:38;14.30;;;4.00;;
24147;SDS011;12309;51.450;-2.624;2022-10-23T04:28:04;11.05;;;4.20;;
24147;SDS011;12309;51.450;-2.624;2022-10-23T04:30:30;17.25;;;5.18;;
24147;SDS011;12309;51.450;-2.624;2022-10-23T04:32:56;20.35;;;4.43;;
24147;SDS011;12309;51.450;-2.624;2022-10-23T04:35:21;14.20;;;4.85;;
24147;SDS011;12309;51.450;-2.624;2022-10-23T04:37:47;13.85;;;4.70;;
24147;SDS011;12309;51.450;-2.624;2022-10-23T04:40:13;16.50;;;5.55;;
24147;SDS011;12309;51.450;-2.624;2022-10-23T04:42:39;12.70;;;4.82;;
24147;SDS011;12309;51.450;-2.624;2022-10-23T04:45:05;12.55;;;4.55;;
24147;SDS011;12309;51.450;-2.624;2022-10-23T04:47:31;13.45;;;4.80;;
24147;SDS011;12309;51.450;-2.624;2022-10-23T04:49:57;16.83;;;5.38;;
24147;SDS011;12309;51.450;-2.624;2022-10-23T04:52:23;12.10;;;4.53;;
24147;SDS011;12309;51.450;-2.624;2022-10-23T04:54:49;12.40;;;4.85;;
24147;SDS011;12309;51.450;-2.624;2022-10-23T04:57:15;11.05;;;4.65;;
24147;SDS011;12309;51.450;-2.624;2022-10-23T04:59:40;11.57;;;4.57;;
24147;SDS011;12309;51.450;-2.624;2022-10-23T05:02:06;13.32;;;4.68;;
24147;SDS011;12309;51.450;-2.624;2022-10-23T05:04:32;11.18;;;4.70;;
24147;SDS011;12309;51.450;-2.624;2022-10-23T05:06:58;6.43;;;3.70;;
24147;SDS011;12309;51.450;-2.624;2022-10-23T05:09:24;11.35;;;4.15;;
24147;SDS011;12309;51.450;-2.624;2022-10-23T05:11:50;11.57;;;3.85;;
24147;SDS011;12309;51.450;-2.624;2022-10-23T05:14:15;8.18;;;3.20;;
24147;SDS011;12309;51.450;-2.624;2022-10-23T05:16:43;8.93;;;3.60;;
24147;SDS011;12309;51.450;-2.624;2022-10-23T05:19:12;10.30;;;3.75;;
24147;SDS011;12309;51.450;-2.624;2022-10-23T05:21:39;8.82;;;2.95;;
24147;SDS011;12309;51.450;-2.624;2022-10-23T05:24:05;7.90;;;3.00;;
24147;SDS011;12309;51.450;-2.624;2022-10-23T05:26:31;13.48;;;3.38;;
24147;SDS011;12309;51.450;-2.624;2022-10-23T05:28:57;5.88;;;2.42;;
24147;SDS011;12309;51.450;-2.624;2022-10-23T05:31:23;5.72;;;2.85;;
24147;SDS011;12309;51.450;-2.624;2022-10-23T05:33:50;8.50;;;2.78;;
24147;SDS011;12309;51.450;-2.624;2022-10-23T05:36:19;6.38;;;2.67;;
24147;SDS011;12309;51.450;-2.624;2022-10-23T05:38:46;5.13;;;2.63;;
24147;SDS011;12309;51.450;-2.624;2022-10-23T05:41:12;7.95;;;2.63;;
24147;SDS011;12309;51.450;-2.624;2022-10-23T05:43:38;10.52;;;3.60;;
24147;SDS011;12309;51.450;-2.624;2022-10-23T05:46:04;10.32;;;3.00;;
24147;SDS011;12309;51.450;-2.624;2022-10-23T05:48:31;7.55;;;3.10;;
24147;SDS011;12309;51.450;-2.624;2022-10-23T05:51:01;8.77;;;3.17;;
24147;SDS011;12309;51.450;-2.624;2022-10-23T05:53:31;9.45;;;3.45;;
24147;SDS011;12309;51.450;-2.624;2022-10-23T05:56:07;7.78;;;3.38;;
24147;SDS011;12309;51.450;-2.624;2022-10-23T05:58:33;10.18;;;3.53;;
24147;SDS011;12309;51.450;-2.624;2022-10-23T06:01:03;11.65;;;3.30;;
24147;SDS011;12309;51.450;-2.624;2022-10-23T06:03:30;5.05;;;2.90;;
24147;SDS011;12309;51.450;-2.624;2022-10-23T06:05:56;12.93;;;3.85;;
24147;SDS011;12309;51.450;-2.624;2022-10-23T06:08:22;11.48;;;4.55;;
24147;SDS011;12309;51.450;-2.624;2022-10-23T06:10:48;11.65;;;3.97;;
24147;SDS011;12309;51.450;-2.624;2022-10-23T06:13:14;13.60;;;3.45;;
24147;SDS011;12309;51.450;-2.624;2022-10-23T06:15:40;8.15;;;3.58;;
24147;SDS011;12309;51.450;-2.624;2022-10-23T06:18:06;7.30;;;4.00;;
24147;SDS011;12309;51.450;-2.624;2022-10-23T06:20:36;7.70;;;4.00;;
24147;SDS011;12309;51.450;-2.624;2022-10-23T06:23:03;8.35;;;3.85;;
24147;SDS011;12309;51.450;-2.624;2022-10-23T06:25:29;10.98;;;4.05;;
24147;SDS011;12309;51.450;-2.624;2022-10-23T06:27:55;10.15;;;2.95;;
24147;SDS011;12309;51.450;-2.624;2022-10-23T06:30:21;17.05;;;3.80;;
24147;SDS011;12309;51.450;-2.624;2022-10-23T06:32:47;11.93;;;3.60;;
24147;SDS011;12309;51.450;-2.624;2022-10-23T06:35:13;9.40;;;3.88;;
24147;SDS011;12309;51.450;-2.624;2022-10-23T06:37:38;11.90;;;3.92;;
24147;SDS011;12309;51.450;-2.624;2022-10-23T06:40:04;10.32;;;4.50;;
24147;SDS011;12309;51.450;-2.624;2022-10-23T06:42:31;12.35;;;4.50;;
24147;SDS011;12309;51.450;-2.624;2022-10-23T06:44:57;15.52;;;5.43;;
24147;SDS011;12309;51.450;-2.624;2022-10-23T06:47:23;9.75;;;4.82;;
24147;SDS011;12309;51.450;-2.624;2022-10-23T06:49:49;16.33;;;5.22;;
24147;SDS011;12309;51.450;-2.624;2022-10-23T06:52:15;8.10;;;4.65;;
24147;SDS011;12309;51.450;-2.624;2022-10-23T06:54:40;9.57;;;4.75;;
24147;SDS011;12309;51.450;-2.624;2022-10-23T06:57:06;8.02;;;3.92;;
24147;SDS011;12309;51.450;-2.624;2022-10-23T06:59:32;8.25;;;3.50;;
24147;SDS011;12309;51.450;-2.624;2022-10-23T07:01:58;7.68;;;3.08;;
24147;SDS011;12309;51.450;-2.624;2022-10-23T07:04:24;6.13;;;2.50;;
24147;SDS011;12309;51.450;-2.624;2022-10-23T07:06:53;9.93;;;2.55;;
24147;SDS011;12309;51.450;-2.624;2022-10-23T07:09:21;8.48;;;2.40;;
24147;SDS011;12309;51.450;-2.624;2022-10-23T07:11:47;10.02;;;2.33;;
24147;SDS011;12309;51.450;-2.624;2022-10-23T07:14:12;9.80;;;2.35;;
24147;SDS011;12309;51.450;-2.624;2022-10-23T07:16:38;7.60;;;2.15;;
24147;SDS011;12309;51.450;-2.624;2022-10-23T07:19:04;4.60;;;1.52;;
24147;SDS011;12309;51.450;-2.624;2022-10-23T07:21:32;8.07;;;2.22;;
24147;SDS011;12309;51.450;-2.624;2022-10-23T07:23:59;5.03;;;2.05;;
24147;SDS011;12309;51.450;-2.624;2022-10-23T07:26:26;10.57;;;2.28;;
24147;SDS011;12309;51.450;-2.624;2022-10-23T07:28:52;5.30;;;2.22;;
24147;SDS011;12309;51.450;-2.624;2022-10-23T07:31:23;5.32;;;1.75;;
24147;SDS011;12309;51.450;-2.624;2022-10-23T07:33:50;6.50;;;1.92;;
24147;SDS011;12309;51.450;-2.624;2022-10-23T07:36:16;5.75;;;2.50;;
24147;SDS011;12309;51.450;-2.624;2022-10-23T07:38:43;7.88;;;2.22;;
24147;SDS011;12309;51.450;-2.624;2022-10-23T07:41:11;5.03;;;2.10;;
24147;SDS011;12309;51.450;-2.624;2022-10-23T07:43:37;7.97;;;2.55;;
24147;SDS011;12309;51.450;-2.624;2022-10-23T07:46:03;6.88;;;1.63;;
24147;SDS011;12309;51.450;-2.624;2022-10-23T07:48:29;8.13;;;2.00;;
24147;SDS011;12309;51.450;-2.624;2022-10-23T07:50:59;5.20;;;1.70;;
24147;SDS011;12309;51.450;-2.624;2022-10-23T07:53:25;4.60;;;1.98;;
24147;SDS011;12309;51.450;-2.624;2022-10-23T07:55:55;4.63;;;2.10;;
24147;SDS011;12309;51.450;-2.624;2022-10-23T07:58:23;3.90;;;1.60;;
24147;SDS011;12309;51.450;-2.624;2022-10-23T08:00:54;8.75;;;2.15;;
24147;SDS011;12309;51.450;-2.624;2022-10-23T08:03:22;4.15;;;1.75;;
24147;SDS011;12309;51.450;-2.624;2022-10-23T08:05:48;8.27;;;1.80;;
24147;SDS011;12309;51.450;-2.624;2022-10-23T08:08:14;2.85;;;1.80;;
24147;SDS011;12309;51.450;-2.624;2022-10-23T08:10:40;3.97;;;1.73;;
24147;SDS011;12309;51.450;-2.624;2022-10-23T08:13:07;6.10;;;1.88;;
24147;SDS011;12309;51.450;-2.624;2022-10-23T08:15:34;6.25;;;1.55;;
24147;SDS011;12309;51.450;-2.624;2022-10-23T08:18:00;5.68;;;1.80;;
24147;SDS011;12309;51.450;-2.624;2022-10-23T08:20:26;3.83;;;1.77;;
24147;SDS011;12309;51.450;-2.624;2022-10-23T08:22:52;2.58;;;1.42;;
24147;SDS011;12309;51.450;-2.624;2022-10-23T08:25:19;4.47;;;1.70;;
24147;SDS011;12309;51.450;-2.624;2022-10-23T08:27:45;2.75;;;1.30;;
24147;SDS011;12309;51.450;-2.624;2022-10-23T08:30:11;4.03;;;1.37;;
24147;SDS011;12309;51.450;-2.624;2022-10-23T08:32:37;3.13;;;1.20;;
24147;SDS011;12309;51.450;-2.624;2022-10-23T08:35:03;3.75;;;1.30;;
24147;SDS011;12309;51.450;-2.624;2022-10-23T08:37:29;6.05;;;1.40;;
24147;SDS011;12309;51.450;-2.624;2022-10-23T08:39:55;4.83;;;1.30;;
24147;SDS011;12309;51.450;-2.624;2022-10-23T08:42:22;1.50;;;1.00;;
24147;SDS011;12309;51.450;-2.624;2022-10-23T08:44:51;2.70;;;1.00;;
24147;SDS011;12309;51.450;-2.624;2022-10-23T08:47:35;3.80;;;1.27;;
24147;SDS011;12309;51.450;-2.624;2022-10-23T08:50:26;5.38;;;1.63;;
24147;SDS011;12309;51.450;-2.624;2022-10-23T08:55:26;5.77;;;1.33;;
24147;SDS011;12309;51.450;-2.624;2022-10-23T08:57:59;2.03;;;1.00;;
24147;SDS011;12309;51.450;-2.624;2022-10-23T09:00:40;5.10;;;1.00;;
24147;SDS011;12309;51.450;-2.624;2022-10-23T09:03:08;1.73;;;0.90;;
24147;SDS011;12309;51.450;-2.624;2022-10-23T09:08:24;2.42;;;1.20;;
24147;SDS011;12309;51.450;-2.624;2022-10-23T09:11:03;2.00;;;1.00;;
24147;SDS011;12309;51.450;-2.624;2022-10-23T09:14:19;3.72;;;1.30;;
24147;SDS011;12309;51.450;-2.624;2022-10-23T09:16:40;2.42;;;1.15;;
24147;SDS011;12309;51.450;-2.624;2022-10-23T09:19:26;1.98;;;0.90;;
24147;SDS011;12309;51.450;-2.624;2022-10-23T09:21:53;1.92;;;0.70;;
24147;SDS011;12309;51.450;-2.624;2022-10-23T09:24:21;1.38;;;0.60;;
24147;SDS011;12309;51.450;-2.624;2022-10-23T09:26:49;3.28;;;0.90;;
24147;SDS011;12309;51.450;-2.624;2022-10-23T09:29:26;2.13;;;0.60;;
24147;SDS011;12309;51.450;-2.624;2022-10-23T09:31:54;2.58;;;0.75;;
24147;SDS011;12309;51.450;-2.624;2022-10-23T09:34:22;1.45;;;0.60;;
24147;SDS011;12309;51.450;-2.624;2022-10-23T09:36:50;2.05;;;0.57;;
24147;SDS011;12309;51.450;-2.624;2022-10-23T09:39:26;1.08;;;0.50;;
24147;SDS011;12309;51.450;-2.624;2022-10-23T09:41:52;0.70;;;0.40;;
24147;SDS011;12309;51.450;-2.624;2022-10-23T09:49:45;0.35;;;0.30;;
24147;SDS011;12309;51.450;-2.624;2022-10-23T09:54:44;1.00;;;0.43;;
24147;SDS011;12309;51.450;-2.624;2022-10-23T09:57:19;1.90;;;0.50;;
24147;SDS011;12309;51.450;-2.624;2022-10-23T10:00:03;2.65;;;0.50;;
24147;SDS011;12309;51.450;-2.624;2022-10-23T10:02:33;2.45;;;0.60;;
24147;SDS011;12309;51.450;-2.624;2022-10-23T10:04:59;1.85;;;0.57;;
24147;SDS011;12309;51.450;-2.624;2022-10-23T10:07:35;2.55;;;0.70;;
24147;SDS011;12309;51.450;-2.624;2022-10-23T10:10:02;3.00;;;0.85;;
24147;SDS011;12309;51.450;-2.624;2022-10-23T10:18:05;1.60;;;0.40;;
24147;SDS011;12309;51.450;-2.624;2022-10-23T10:20:51;1.27;;;0.50;;
24147;SDS011;12309;51.450;-2.624;2022-10-23T10:39:03;3.53;;;0.60;;
24147;SDS011;12309;51.450;-2.624;2022-10-23T10:46:58;5.30;;;0.68;;
24147;SDS011;12309;51.450;-2.624;2022-10-23T10:52:01;4.65;;;0.90;;
24147;SDS011;12309;51.450;-2.624;2022-10-23T10:54:51;4.72;;;0.60;;
24147;SDS011;12309;51.450;-2.624;2022-10-23T10:59:59;6.75;;;0.82;;
24147;SDS011;12309;51.450;-2.624;2022-10-23T11:02:34;4.07;;;0.85;;
24147;SDS011;12309;51.450;-2.624;2022-10-23T11:07:54;4.45;;;0.73;;
24147;SDS011;12309;51.450;-2.624;2022-10-23T11:10:21;10.10;;;0.88;;
24147;SDS011;12309;51.450;-2.624;2022-10-23T11:12:47;6.13;;;1.00;;
24147;SDS011;12309;51.450;-2.624;2022-10-23T11:15:14;6.68;;;1.10;;
24147;SDS011;12309;51.450;-2.624;2022-10-23T11:17:48;10.63;;;1.27;;
24147;SDS011;12309;51.450;-2.624;2022-10-23T11:20:36;8.43;;;1.02;;
24147;SDS011;12309;51.450;-2.624;2022-10-23T11:35:18;7.65;;;1.25;;
24147;SDS011;12309;51.450;-2.624;2022-10-23T11:40:36;8.23;;;1.27;;
24147;SDS011;12309;51.450;-2.624;2022-10-23T11:43:13;6.47;;;1.00;;
24147;SDS011;12309;51.450;-2.624;2022-10-23T11:45:54;8.82;;;1.10;;
24147;SDS011;12309;51.450;-2.624;2022-10-23T11:48:22;5.72;;;1.27;;
24147;SDS011;12309;51.450;-2.624;2022-10-23T11:54:03;4.88;;;1.00;;
24147;SDS011;12309;51.450;-2.624;2022-10-23T11:56:30;7.25;;;1.05;;
24147;SDS011;12309;51.450;-2.624;2022-10-23T11:58:58;3.97;;;0.90;;
24147;SDS011;12309;51.450;-2.624;2022-10-23T12:01:52;4.10;;;0.80;;
24147;SDS011;12309;51.450;-2.624;2022-10-23T12:04:21;9.63;;;1.27;;
24147;SDS011;12309;51.450;-2.624;2022-10-23T12:06:57;5.15;;;1.20;;
24147;SDS011;12309;51.450;-2.624;2022-10-23T12:14:33;5.32;;;1.00;;
24147;SDS011;12309;51.450;-2.624;2022-10-23T12:17:00;9.75;;;1.65;;
24147;SDS011;12309;51.450;-2.624;2022-10-23T12:19:35;5.43;;;0.95;;
24147;SDS011;12309;51.450;-2.624;2022-10-23T12:22:12;4.68;;;1.13;;
24147;SDS011;12309;51.450;-2.624;2022-10-23T12:29:33;5.80;;;2.10;;
24147;SDS011;12309;51.450;-2.624;2022-10-23T12:34:51;5.72;;;1.25;;
24147;SDS011;12309;51.450;-2.624;2022-10-23T12:38:23;4.60;;;1.15;;
24147;SDS011;12309;51.450;-2.624;2022-10-23T12:40:54;7.53;;;0.75;;
24147;SDS011;12309;51.450;-2.624;2022-10-23T12:43:34;6.03;;;0.82;;
24147;SDS011;12309;51.450;-2.624;2022-10-23T12:48:59;5.10;;;0.75;;
24147;SDS011;12309;51.450;-2.624;2022-10-23T12:51:29;3.15;;;0.95;;
24147;SDS011;12309;51.450;-2.624;2022-10-23T12:53:56;7.13;;;0.80;;
24147;SDS011;12309;51.450;-2.624;2022-10-23T12:56:25;4.15;;;0.80;;
24147;SDS011;12309;51.450;-2.624;2022-10-23T12:58:57;4.28;;;0.80;;
24147;SDS011;12309;51.450;-2.624;2022-10-23T13:01:26;9.02;;;1.05;;
24147;SDS011;12309;51.450;-2.624;2022-10-23T13:03:57;6.53;;;0.80;;
24147;SDS011;12309;51.450;-2.624;2022-10-23T13:06:32;3.90;;;1.02;;
24147;SDS011;12309;51.450;-2.624;2022-10-23T13:08:58;2.67;;;0.95;;
24147;SDS011;12309;51.450;-2.624;2022-10-23T13:11:24;3.22;;;0.93;;
24147;SDS011;12309;51.450;-2.624;2022-10-23T13:13:51;4.85;;;1.00;;
24147;SDS011;12309;51.450;-2.624;2022-10-23T13:16:19;3.85;;;0.80;;
24147;SDS011;12309;51.450;-2.624;2022-10-23T13:18:46;7.88;;;1.02;;
24147;SDS011;12309;51.450;-2.624;2022-10-23T13:21:18;3.13;;;0.80;;
24147;SDS011;12309;51.450;-2.624;2022-10-23T13:23:49;5.50;;;0.90;;
24147;SDS011;12309;51.450;-2.624;2022-10-23T13:28:51;9.60;;;1.45;;
24147;SDS011;12309;51.450;-2.624;2022-10-23T13:33:46;4.70;;;1.02;;
24147;SDS011;12309;51.450;-2.624;2022-10-23T13:38:43;9.43;;;1.10;;
24147;SDS011;12309;51.450;-2.624;2022-10-23T13:41:11;8.50;;;1.00;;
24147;SDS011;12309;51.450;-2.624;2022-10-23T13:43:38;3.83;;;0.65;;
24147;SDS011;12309;51.450;-2.624;2022-10-23T13:46:05;5.10;;;1.05;;
24147;SDS011;12309;51.450;-2.624;2022-10-23T13:48:37;4.47;;;1.13;;
24147;SDS011;12309;51.450;-2.624;2022-10-23T13:51:09;8.18;;;1.08;;
24147;SDS011;12309;51.450;-2.624;2022-10-23T13:53:38;6.93;;;1.05;;
24147;SDS011;12309;51.450;-2.624;2022-10-23T13:56:04;4.05;;;1.08;;
24147;SDS011;12309;51.450;-2.624;2022-10-23T13:58:30;7.07;;;0.90;;
24147;SDS011;12309;51.450;-2.624;2022-10-23T14:00:56;5.63;;;1.20;;
24147;SDS011;12309;51.450;-2.624;2022-10-23T14:03:22;3.78;;;0.85;;
24147;SDS011;12309;51.450;-2.624;2022-10-23T14:05:51;3.85;;;0.88;;
24147;SDS011;12309;51.450;-2.624;2022-10-23T14:08:17;6.00;;;1.30;;
24147;SDS011;12309;51.450;-2.624;2022-10-23T14:10:43;6.15;;;0.60;;
24147;SDS011;12309;51.450;-2.624;2022-10-23T14:13:10;7.35;;;1.33;;
24147;SDS011;12309;51.450;-2.624;2022-10-23T14:15:36;3.83;;;0.95;;
24147;SDS011;12309;51.450;-2.624;2022-10-23T14:18:02;7.80;;;1.25;;
24147;SDS011;12309;51.450;-2.624;2022-10-23T14:20:28;4.05;;;0.77;;
24147;SDS011;12309;51.450;-2.624;2022-10-23T14:22:53;6.10;;;1.00;;
24147;SDS011;12309;51.450;-2.624;2022-10-23T14:25:20;4.57;;;0.75;;
24147;SDS011;12309;51.450;-2.624;2022-10-23T14:27:46;4.20;;;0.80;;
24147;SDS011;12309;51.450;-2.624;2022-10-23T14:30:12;7.22;;;0.93;;
24147;SDS011;12309;51.450;-2.624;2022-10-23T14:32:38;7.90;;;1.02;;
24147;SDS011;12309;51.450;-2.624;2022-10-23T14:35:03;4.53;;;1.00;;
24147;SDS011;12309;51.450;-2.624;2022-10-23T14:37:31;7.70;;;1.00;;
24147;SDS011;12309;51.450;-2.624;2022-10-23T14:39:57;4.28;;;0.90;;
24147;SDS011;12309;51.450;-2.624;2022-10-23T14:42:23;9.85;;;1.00;;
24147;SDS011;12309;51.450;-2.624;2022-10-23T14:44:49;6.07;;;1.35;;
24147;SDS011;12309;51.450;-2.624;2022-10-23T14:47:16;2.05;;;0.50;;
24147;SDS011;12309;51.450;-2.624;2022-10-23T14:49:43;1.33;;;0.50;;
24147;SDS011;12309;51.450;-2.624;2022-10-23T14:52:14;3.08;;;0.60;;
24147;SDS011;12309;51.450;-2.624;2022-10-23T14:54:40;6.00;;;0.85;;
24147;SDS011;12309;51.450;-2.624;2022-10-23T14:57:06;1.52;;;0.55;;
24147;SDS011;12309;51.450;-2.624;2022-10-23T14:59:32;3.08;;;0.55;;
24147;SDS011;12309;51.450;-2.624;2022-10-23T15:01:58;6.60;;;0.60;;
24147;SDS011;12309;51.450;-2.624;2022-10-23T15:04:24;3.03;;;0.70;;
24147;SDS011;12309;51.450;-2.624;2022-10-23T15:06:50;3.53;;;0.63;;
24147;SDS011;12309;51.450;-2.624;2022-10-23T15:09:16;2.10;;;0.47;;
24147;SDS011;12309;51.450;-2.624;2022-10-23T15:11:43;3.70;;;0.70;;
24147;SDS011;12309;51.450;-2.624;2022-10-23T15:14:09;2.85;;;0.57;;
24147;SDS011;12309;51.450;-2.624;2022-10-23T15:16:35;4.63;;;0.70;;
24147;SDS011;12309;51.450;-2.624;2022-10-23T15:19:05;2.40;;;0.80;;
24147;SDS011;12309;51.450;-2.624;2022-10-23T15:21:32;2.22;;;0.77;;
24147;SDS011;12309;51.450;-2.624;2022-10-23T15:23:59;5.72;;;0.77;;
24147;SDS011;12309;51.450;-2.624;2022-10-23T15:26:24;7.45;;;0.82;;
24147;SDS011;12309;51.450;-2.624;2022-10-23T15:28:57;4.32;;;0.70;;
24147;SDS011;12309;51.450;-2.624;2022-10-23T15:34:01;6.22;;;1.00;;
24147;SDS011;12309;51.450;-2.624;2022-10-23T15:36:28;7.40;;;0.82;;
24147;SDS011;12309;51.450;-2.624;2022-10-23T15:38:54;7.45;;;0.77;;
24147;SDS011;12309;51.450;-2.624;2022-10-23T15:41:21;5.95;;;1.38;;
24147;SDS011;12309;51.450;-2.624;2022-10-23T15:43:51;4.43;;;1.05;;
24147;SDS011;12309;51.450;-2.624;2022-10-23T15:46:17;4.25;;;1.02;;
24147;SDS011;12309;51.450;-2.624;2022-10-23T15:48:43;5.05;;;0.88;;
24147;SDS011;12309;51.450;-2.624;2022-10-23T15:51:09;4.22;;;1.10;;
24147;SDS011;12309;51.450;-2.624;2022-10-23T15:53:35;4.60;;;1.23;;
24147;SDS011;12309;51.450;-2.624;2022-10-23T15:56:01;4.97;;;1.10;;
24147;SDS011;12309;51.450;-2.624;2022-10-23T15:58:27;6.10;;;1.30;;
24147;SDS011;12309;51.450;-2.624;2022-10-23T16:00:53;5.43;;;1.17;;
24147;SDS011;12309;51.450;-2.624;2022-10-23T16:03:18;4.00;;;0.88;;
24147;SDS011;12309;51.450;-2.624;2022-10-23T16:05:44;5.70;;;0.95;;
24147;SDS011;12309;51.450;-2.624;2022-10-23T16:08:10;9.27;;;1.10;;
24147;SDS011;12309;51.450;-2.624;2022-10-23T16:10:40;6.07;;;1.17;;
24147;SDS011;12309;51.450;-2.624;2022-10-23T16:13:07;5.93;;;1.08;;
24147;SDS011;12309;51.450;-2.624;2022-10-23T16:15:36;4.95;;;1.40;;
24147;SDS011;12309;51.450;-2.624;2022-10-23T16:18:02;8.60;;;1.25;;
24147;SDS011;12309;51.450;-2.624;2022-10-23T16:20:28;4.97;;;1.08;;
24147;SDS011;12309;51.450;-2.624;2022-10-23T16:22:54;6.82;;;1.63;;
24147;SDS011;12309;51.450;-2.624;2022-10-23T16:25:20;10.63;;;1.80;;
24147;SDS011;12309;51.450;-2.624;2022-10-23T16:27:46;7.57;;;2.92;;
24147;SDS011;12309;51.450;-2.624;2022-10-23T16:30:12;9.00;;;2.97;;
24147;SDS011;12309;51.450;-2.624;2022-10-23T16:32:38;8.60;;;2.80;;
24147;SDS011;12309;51.450;-2.624;2022-10-23T16:35:05;17.00;;;3.40;;
24147;SDS011;12309;51.450;-2.624;2022-10-23T16:37:31;11.13;;;2.72;;